Time;durP1;ratioP1;P1;durP2;ratioP2;P2;SDS_P1;SDS_P2;PMS_P1;PMS_P2;Temp;Humidity;BMP_temperature;BMP_pressure;BME280_temperature;BME280_humidity;BME280_pressure;Samples;Min_cycle;Max_cycle;Signal;HPM_P1;HPM_P2
2021/05/31 00:01:12;;;;;;;4.17;3.70;;;15.30;58.60;;;;;;5041122;28;20220;-89
2021/05/31 00:03:37;;;;;;;5.03;4.60;;;15.20;59.10;;;;;;5059239;28;20234;-90
2021/05/31 00:06:03;;;;;;;4.43;4.03;;;15.00;59.40;;;;;;5041401;28;20620;-90
2021/05/31 00:08:29;;;;;;;4.50;3.73;;;14.90;60.00;;;;;;5042007;28;20179;-90
2021/05/31 00:10:55;;;;;;;4.37;3.97;;;14.80;60.20;;;;;;5059052;28;20196;-91
2021/05/31 00:13:21;;;;;;;4.50;4.10;;;14.70;60.50;;;;;;5059200;28;20263;-90
2021/05/31 00:15:46;;;;;;;5.90;4.27;;;14.70;60.40;;;;;;5059348;28;20199;-91
2021/05/31 00:18:14;;;;;;;4.20;3.87;;;14.80;59.50;;;;;;5041469;28;20230;-91
2021/05/31 00:20:40;;;;;;;4.30;4.00;;;15.10;57.80;;;;;;5058535;28;20194;-90
2021/05/31 00:23:06;;;;;;;5.30;4.40;;;15.20;57.40;;;;;;5059403;28;20200;-90
2021/05/31 00:25:32;;;;;;;4.67;4.20;;;15.10;57.20;;;;;;5041294;28;20562;-92
2021/05/31 00:27:57;;;;;;;4.47;4.10;;;15.00;58.00;;;;;;5058598;28;20196;-90
2021/05/31 00:30:24;;;;;;;4.50;4.10;;;14.70;59.70;;;;;;5057308;28;20738;-89
2021/05/31 00:32:53;;;;;;;4.30;3.90;;;14.40;60.50;;;;;;5057581;28;20185;-90
2021/05/31 00:35:20;;;;;;;5.37;4.10;;;14.60;60.50;;;;;;5057716;28;20174;-89
2021/05/31 00:37:46;;;;;;;4.87;4.43;;;14.60;60.60;;;;;;5057288;28;20198;-90
2021/05/31 00:40:12;;;;;;;4.10;3.80;;;14.70;60.40;;;;;;5057285;28;20200;-90
2021/05/31 00:42:39;;;;;;;4.60;4.20;;;14.70;60.20;;;;;;5057387;28;20219;-90
2021/05/31 00:45:07;;;;;;;4.83;3.83;;;14.60;60.20;;;;;;5057515;28;20177;-89
2021/05/31 00:47:33;;;;;;;5.77;4.40;;;14.60;60.10;;;;;;5038889;28;20671;-90
2021/05/31 00:49:59;;;;;;;4.63;4.23;;;14.70;59.10;;;;;;5057148;28;20618;-90
2021/05/31 00:52:25;;;;;;;5.57;3.90;;;14.90;58.40;;;;;;5058708;28;20190;-90
2021/05/31 00:54:51;;;;;;;4.50;4.07;;;14.80;58.40;;;;;;5067037;28;20208;-89
2021/05/31 00:57:17;;;;;;;4.40;4.10;;;14.80;58.30;;;;;;5060462;28;20185;-90
2021/05/31 00:59:43;;;;;;;5.53;4.20;;;14.70;58.90;;;;;;5057334;28;20206;-90
2021/05/31 01:02:09;;;;;;;5.13;4.13;;;14.40;60.20;;;;;;5058047;28;20196;-90
2021/05/31 01:04:35;;;;;;;5.17;4.67;;;14.20;59.90;;;;;;5058247;28;20187;-90
2021/05/31 01:07:08;;;;;;;5.37;4.87;;;14.20;60.70;;;;;;5057726;28;20172;-90
2021/05/31 01:09:56;;;;;;;4.50;4.10;;;14.30;60.50;;;;;;5057351;28;20504;-90
2021/05/31 01:12:37;;;;;;;4.73;4.20;;;14.40;59.90;;;;;;5057272;28;20259;-90
2021/05/31 01:15:20;;;;;;;4.50;4.10;;;14.50;59.00;;;;;;5038485;28;20216;-90
2021/05/31 01:18:04;;;;;;;8.53;4.37;;;14.50;58.50;;;;;;5057292;28;20186;-89
2021/05/31 01:20:35;;;;;;;4.57;4.13;;;14.50;57.90;;;;;;5048837;28;20209;-90
2021/05/31 01:23:09;;;;;;;4.63;4.17;;;14.40;58.40;;;;;;5056776;28;20204;-91
2021/05/31 01:25:56;;;;;;;4.33;3.77;;;14.60;58.10;;;;;;5055827;28;20183;-89
2021/05/31 01:28:36;;;;;;;4.57;4.17;;;14.70;57.80;;;;;;5057112;28;20164;-89
2021/05/31 01:31:02;;;;;;;4.07;3.67;;;14.70;57.60;;;;;;5057334;28;20203;-91
2021/05/31 01:33:33;;;;;;;4.70;4.30;;;14.70;57.20;;;;;;5038997;28;20188;-88
2021/05/31 01:36:00;;;;;;;5.40;4.20;;;14.50;58.00;;;;;;5057003;28;20229;-90
2021/05/31 01:38:28;;;;;;;4.90;4.37;;;14.30;58.40;;;;;;5056169;28;20184;-92
2021/05/31 01:40:54;;;;;;;4.20;3.90;;;14.20;58.50;;;;;;5057261;28;20232;-89
2021/05/31 01:43:21;;;;;;;4.57;4.17;;;14.20;58.80;;;;;;5040152;28;20204;-89
2021/05/31 01:45:48;;;;;;;4.87;4.30;;;14.00;58.90;;;;;;5061700;28;20179;-88
2021/05/31 01:48:14;;;;;;;4.20;3.90;;;14.00;58.80;;;;;;5043937;28;20203;-88
2021/05/31 01:50:40;;;;;;;4.93;4.47;;;13.80;59.20;;;;;;5042803;28;20553;-89
2021/05/31 01:53:06;;;;;;;4.60;4.20;;;13.80;58.80;;;;;;5061837;28;20183;-89
2021/05/31 01:55:35;;;;;;;5.83;4.33;;;13.90;59.10;;;;;;5060424;28;20187;-90
2021/05/31 01:58:02;;;;;;;4.40;4.07;;;13.90;59.10;;;;;;5043117;28;20267;-89
2021/05/31 02:00:28;;;;;;;5.83;4.47;;;13.90;58.80;;;;;;5042635;28;20233;-89
2021/05/31 02:02:54;;;;;;;4.63;3.90;;;13.90;59.20;;;;;;5061390;28;20208;-89
2021/05/31 02:05:20;;;;;;;5.27;4.03;;;13.90;59.00;;;;;;5060413;28;20176;-89
2021/05/31 02:07:45;;;;;;;4.60;4.20;;;14.00;58.10;;;;;;5043576;28;20654;-88
2021/05/31 02:10:13;;;;;;;4.47;4.10;;;14.00;58.40;;;;;;5060391;28;20205;-91
2021/05/31 02:12:43;;;;;;;6.67;4.00;;;14.00;58.60;;;;;;5059792;28;20177;-88
2021/05/31 02:15:14;;;;;;;4.20;3.90;;;14.00;58.30;;;;;;5060869;28;20185;-92
2021/05/31 02:18:18;;;;;;;4.40;4.00;;;14.10;58.60;;;;;;5059595;28;20175;-91
2021/05/31 02:20:45;;;;;;;4.30;4.00;;;14.20;57.70;;;;;;4999823;28;20239;-91
2021/05/31 02:23:13;;;;;;;4.60;4.20;;;14.00;58.40;;;;;;5040540;28;20211;-91
2021/05/31 02:25:39;;;;;;;4.23;3.83;;;13.80;59.40;;;;;;5022563;28;20192;-88
2021/05/31 02:28:05;;;;;;;4.50;4.10;;;13.80;59.80;;;;;;5040301;28;20263;-91
2021/05/31 02:30:32;;;;;;;4.67;4.23;;;14.00;59.50;;;;;;5040180;28;20269;-92
2021/05/31 02:33:04;;;;;;;4.33;3.83;;;14.20;58.20;;;;;;5040397;28;20185;-91
2021/05/31 02:35:32;;;;;;;4.37;3.97;;;14.30;57.70;;;;;;5022493;28;20287;-88
2021/05/31 02:37:59;;;;;;;4.53;4.13;;;14.30;57.90;;;;;;5040242;28;20188;-89
2021/05/31 02:40:25;;;;;;;5.70;4.53;;;14.20;57.20;;;;;;5022123;28;20213;-91
2021/05/31 02:42:54;;;;;;;4.30;3.90;;;14.20;58.00;;;;;;5040271;28;20204;-91
2021/05/31 02:45:25;;;;;;;4.53;4.13;;;14.20;57.80;;;;;;5026794;28;20195;-89
2021/05/31 02:47:51;;;;;;;5.43;4.23;;;14.20;58.00;;;;;;5061628;28;20230;-89
2021/05/31 02:50:17;;;;;;;4.23;3.80;;;14.10;58.20;;;;;;5043901;28;20662;-89
2021/05/31 02:52:43;;;;;;;4.20;3.80;;;14.00;59.30;;;;;;5061132;28;20215;-89
2021/05/31 02:55:13;;;;;;;5.30;4.10;;;14.00;58.80;;;;;;5043404;28;20263;-88
2021/05/31 02:57:39;;;;;;;4.47;4.07;;;14.00;59.00;;;;;;5042368;28;20192;-91
2021/05/31 03:00:07;;;;;;;4.77;3.93;;;13.90;59.40;;;;;;5061224;28;20307;-89
2021/05/31 03:02:34;;;;;;;4.67;4.27;;;14.00;58.40;;;;;;5061396;28;20295;-89
2021/05/31 03:05:00;;;;;;;4.97;4.40;;;14.10;58.90;;;;;;5061511;28;20536;-89
2021/05/31 03:07:26;;;;;;;4.33;3.93;;;14.20;58.40;;;;;;5061585;28;20184;-92
2021/05/31 03:09:51;;;;;;;4.50;3.70;;;14.20;57.70;;;;;;5061667;28;20213;-89
2021/05/31 03:12:17;;;;;;;4.50;4.10;;;14.10;59.80;;;;;;5060685;28;20189;-89
2021/05/31 03:14:43;;;;;;;4.37;3.97;;;14.00;58.50;;;;;;5026561;28;20192;-89
2021/05/31 03:17:09;;;;;;;4.47;4.07;;;14.00;59.00;;;;;;5049117;28;20192;-89
2021/05/31 03:19:34;;;;;;;5.30;4.03;;;14.00;58.80;;;;;;5049728;28;20271;-91
2021/05/31 03:22:00;;;;;;;4.53;4.13;;;14.10;59.10;;;;;;5063765;28;20622;-90
2021/05/31 03:24:25;;;;;;;4.73;4.30;;;14.10;58.60;;;;;;5062535;28;20548;-89
2021/05/31 03:26:51;;;;;;;5.40;3.97;;;14.00;58.00;;;;;;5042423;28;20188;-91
2021/05/31 03:29:17;;;;;;;4.10;3.70;;;13.90;58.40;;;;;;5042215;28;20263;-89
2021/05/31 03:31:42;;;;;;;4.70;4.30;;;13.90;58.50;;;;;;5042590;28;20185;-89
2021/05/31 03:34:08;;;;;;;4.57;4.27;;;13.90;58.20;;;;;;5060391;28;20238;-91
2021/05/31 03:36:34;;;;;;;4.63;4.17;;;13.80;58.20;;;;;;5060670;28;20184;-88
2021/05/31 03:38:59;;;;;;;5.50;4.53;;;13.40;59.00;;;;;;5071503;28;20188;-87
2021/05/31 03:41:25;;;;;;;4.03;3.73;;;13.10;60.90;;;;;;5073993;28;20596;-88
2021/05/31 03:43:51;;;;;;;5.77;4.23;;;12.80;61.50;;;;;;5041240;28;20176;-89
2021/05/31 03:46:16;;;;;;;5.30;4.90;;;12.60;63.10;;;;;;5059185;28;20181;-89
2021/05/31 03:48:42;;;;;;;4.80;4.30;;;12.40;64.00;;;;;;5059293;28;20182;-92
2021/05/31 03:51:08;;;;;;;5.37;4.20;;;12.30;64.40;;;;;;5059459;28;20227;-89
2021/05/31 03:53:37;;;;;;;4.77;4.37;;;12.40;64.00;;;;;;5059664;28;20195;-88
2021/05/31 03:56:03;;;;;;;4.30;3.90;;;12.50;63.40;;;;;;5059141;28;20237;-89
2021/05/31 03:58:29;;;;;;;4.30;3.90;;;12.60;62.50;;;;;;5059210;28;20244;-89
2021/05/31 04:00:54;;;;;;;5.63;3.90;;;12.60;62.70;;;;;;5059696;28;20208;-89
2021/05/31 04:03:20;;;;;;;4.27;3.80;;;12.60;62.20;;;;;;5058290;28;20346;-91
2021/05/31 04:06:58;;;;;;;4.60;4.20;;;12.40;62.60;;;;;;5040882;28;20736;-89
2021/05/31 04:11:38;;;;;;;4.50;4.10;;;12.40;63.10;;;;;;5059011;28;20193;-89
2021/05/31 04:14:13;;;;;;;4.93;4.07;;;12.30;63.30;;;;;;5059805;28;20167;-89
2021/05/31 04:16:40;;;;;;;4.50;4.07;;;12.10;63.60;;;;;;5043215;28;20187;-89
2021/05/31 04:19:08;;;;;;;4.37;3.97;;;12.00;64.30;;;;;;5026480;28;20212;-90
2021/05/31 04:21:34;;;;;;;4.87;4.10;;;11.90;64.30;;;;;;5043319;28;20188;-89
2021/05/31 04:24:00;;;;;;;5.23;4.10;;;12.10;65.70;;;;;;5060316;28;20248;-90
2021/05/31 04:26:26;;;;;;;4.53;3.93;;;12.30;63.70;;;;;;5059883;28;20180;-90
2021/05/31 04:28:52;;;;;;;3.77;3.47;;;12.20;63.90;;;;;;5059548;28;20187;-89
2021/05/31 04:31:18;;;;;;;4.30;3.70;;;12.10;63.50;;;;;;5042475;28;20211;-89
2021/05/31 04:33:44;;;;;;;4.93;4.00;;;11.90;64.60;;;;;;5056731;28;20179;-90
2021/05/31 04:36:10;;;;;;;5.53;4.83;;;11.90;65.30;;;;;;5057359;28;20169;-91
2021/05/31 04:38:37;;;;;;;4.87;4.20;;;12.10;64.40;;;;;;5057298;28;20204;-91
2021/05/31 04:41:03;;;;;;;4.00;3.60;;;12.00;64.40;;;;;;5061591;28;20618;-91
2021/05/31 04:43:29;;;;;;;7.67;4.47;;;11.90;64.00;;;;;;5044963;28;20211;-90
2021/05/31 04:45:55;;;;;;;4.60;4.07;;;11.80;64.90;;;;;;5062707;28;20183;-90
2021/05/31 04:48:21;;;;;;;4.90;3.90;;;11.80;65.00;;;;;;5053236;28;20176;-90
2021/05/31 04:50:47;;;;;;;6.83;4.33;;;11.80;65.20;;;;;;5047154;28;20200;-90
2021/05/31 04:53:13;;;;;;;4.50;4.10;;;11.90;64.60;;;;;;5053829;28;20719;-91
2021/05/31 04:55:40;;;;;;;4.60;3.93;;;12.10;64.90;;;;;;5061891;28;20177;-89
2021/05/31 04:58:06;;;;;;;3.90;3.60;;;12.20;63.20;;;;;;5044299;28;20180;-88
2021/05/31 05:00:31;;;;;;;3.90;3.60;;;12.20;63.20;;;;;;5044165;28;20211;-89
2021/05/31 05:02:57;;;;;;;4.30;3.90;;;12.20;61.90;;;;;;5031148;28;20201;-90
2021/05/31 05:05:23;;;;;;;4.20;3.87;;;12.30;61.90;;;;;;5041860;28;20247;-90
2021/05/31 05:07:49;;;;;;;3.90;3.60;;;12.30;61.30;;;;;;5037257;28;20176;-90
2021/05/31 05:10:22;;;;;;;4.40;4.00;;;12.40;61.40;;;;;;5036976;28;20675;-90
2021/05/31 05:12:50;;;;;;;4.37;3.97;;;12.40;60.40;;;;;;5049851;28;20505;-90
2021/05/31 05:15:18;;;;;;;4.37;3.97;;;12.40;60.60;;;;;;5057983;28;20671;-90
2021/05/31 05:17:45;;;;;;;4.13;3.80;;;12.40;60.60;;;;;;5024707;28;20184;-89
2021/05/31 05:20:12;;;;;;;4.03;3.63;;;12.30;61.00;;;;;;5040854;28;20210;-90
2021/05/31 05:22:38;;;;;;;3.90;3.60;;;12.40;60.80;;;;;;5021370;28;20213;-90
2021/05/31 05:25:05;;;;;;;4.53;3.87;;;12.50;61.40;;;;;;5021957;28;20193;-90
2021/05/31 05:27:31;;;;;;;4.73;3.93;;;12.70;60.60;;;;;;5030408;28;20178;-90
2021/05/31 05:29:57;;;;;;;6.03;3.90;;;12.80;60.60;;;;;;5042093;28;20201;-90
2021/05/31 05:32:22;;;;;;;3.97;3.67;;;12.90;59.80;;;;;;5059331;28;20236;-92
2021/05/31 05:34:50;;;;;;;5.17;3.77;;;12.90;59.50;;;;;;5059531;28;20288;-90
2021/05/31 05:37:22;;;;;;;4.53;4.13;;;13.10;58.40;;;;;;5049672;28;20230;-90
2021/05/31 05:45:22;;;;;;;3.70;3.40;;;13.40;55.20;;;;;;5054208;28;20190;-91
2021/05/31 05:47:48;;;;;;;9.80;3.70;;;13.40;55.00;;;;;;5047489;28;20163;-90
2021/05/31 05:50:17;;;;;;;6.33;3.80;;;13.50;54.40;;;;;;5076197;28;20749;-90
2021/05/31 05:52:43;;;;;;;4.80;3.40;;;13.50;53.80;;;;;;5042658;28;20197;-90
2021/05/31 05:55:11;;;;;;;5.00;3.63;;;13.60;53.80;;;;;;5058606;28;21953;-91
2021/05/31 05:57:37;;;;;;;3.60;3.30;;;13.70;53.30;;;;;;5058465;28;20701;-90
2021/05/31 06:00:07;;;;;;;6.20;3.47;;;13.80;52.90;;;;;;5053484;28;20242;-90
2021/05/31 06:02:33;;;;;;;4.43;3.27;;;13.90;53.00;;;;;;5021476;28;20245;-90
2021/05/31 06:04:58;;;;;;;3.80;3.40;;;14.10;52.70;;;;;;5021020;28;20200;-90
2021/05/31 06:07:25;;;;;;;10.10;3.70;;;14.20;52.60;;;;;;5038821;28;20203;-90
2021/05/31 06:10:03;;;;;;;3.57;3.27;;;14.20;52.40;;;;;;5022280;28;20208;-91
2021/05/31 06:12:29;;;;;;;3.63;3.33;;;14.30;51.90;;;;;;5040360;28;20274;-90
2021/05/31 06:14:55;;;;;;;3.83;3.30;;;14.40;51.40;;;;;;5039295;28;20215;-90
2021/05/31 06:17:20;;;;;;;5.27;3.40;;;14.50;51.80;;;;;;5021127;28;20216;-91
2021/05/31 06:19:46;;;;;;;4.60;3.63;;;14.50;51.20;;;;;;5055941;28;20231;-91
2021/05/31 06:22:11;;;;;;;4.13;3.83;;;14.70;51.60;;;;;;5057946;28;20236;-91
2021/05/31 06:24:38;;;;;;;3.63;3.33;;;14.80;50.50;;;;;;5036984;28;20244;-90
2021/05/31 06:27:04;;;;;;;5.37;3.70;;;14.90;50.60;;;;;;5039889;28;20181;-91
2021/05/31 06:29:30;;;;;;;5.17;3.33;;;15.00;50.80;;;;;;5041499;28;20312;-90
2021/05/31 06:31:56;;;;;;;4.97;3.60;;;15.10;51.00;;;;;;5061890;28;20177;-90
2021/05/31 06:34:22;;;;;;;6.67;3.83;;;15.10;51.30;;;;;;5045717;28;20184;-91
2021/05/31 06:36:48;;;;;;;5.37;3.87;;;15.00;51.80;;;;;;5062601;28;20188;-90
2021/05/31 06:39:14;;;;;;;4.60;3.50;;;15.10;51.90;;;;;;5019034;28;20212;-90
2021/05/31 06:41:40;;;;;;;4.10;3.77;;;15.20;52.80;;;;;;5025187;28;20208;-90
2021/05/31 06:44:09;;;;;;;4.80;3.17;;;15.40;52.00;;;;;;5037735;28;20657;-91
2021/05/31 06:46:34;;;;;;;4.80;3.40;;;15.40;51.60;;;;;;5061026;28;20230;-91
2021/05/31 06:49:00;;;;;;;5.03;3.90;;;15.40;51.30;;;;;;5063076;28;20182;-91
2021/05/31 06:51:26;;;;;;;4.83;3.43;;;15.40;50.90;;;;;;5045332;28;20181;-91
2021/05/31 06:53:52;;;;;;;3.50;3.20;;;15.50;51.40;;;;;;5013096;28;20190;-90
2021/05/31 06:56:19;;;;;;;4.63;3.67;;;15.50;50.90;;;;;;5059261;28;20500;-90
2021/05/31 06:58:45;;;;;;;5.60;3.97;;;15.70;50.90;;;;;;5048443;28;20170;-90
2021/05/31 07:01:11;;;;;;;6.20;3.50;;;15.80;51.00;;;;;;5041810;28;20226;-90
2021/05/31 07:03:37;;;;;;;4.27;3.60;;;16.00;50.30;;;;;;5045243;28;20209;-90
2021/05/31 07:06:05;;;;;;;4.07;3.60;;;16.10;49.60;;;;;;5046113;28;20185;-88
2021/05/31 07:08:31;;;;;;;3.90;3.33;;;16.10;49.50;;;;;;5056379;28;20522;-88
2021/05/31 07:11:00;;;;;;;3.73;3.30;;;16.20;49.10;;;;;;5063403;28;20198;-91
2021/05/31 07:13:27;;;;;;;3.90;3.60;;;16.30;49.20;;;;;;5064229;28;20580;-91
2021/05/31 07:15:54;;;;;;;4.13;3.73;;;16.30;49.00;;;;;;5064068;28;20267;-91
2021/05/31 07:18:20;;;;;;;4.93;3.67;;;16.30;49.40;;;;;;5045889;28;20187;-92
2021/05/31 07:20:48;;;;;;;3.47;3.17;;;16.40;49.30;;;;;;5048597;28;20261;-91
2021/05/31 07:23:15;;;;;;;3.70;3.40;;;16.60;49.60;;;;;;5053287;28;20261;-91
2021/05/31 07:25:40;;;;;;;4.80;4.30;;;16.70;48.10;;;;;;5066780;28;20701;-91
2021/05/31 07:28:06;;;;;;;3.87;3.40;;;16.90;46.70;;;;;;5064084;28;20175;-91
2021/05/31 07:30:32;;;;;;;4.10;3.50;;;17.00;46.10;;;;;;5030304;28;20204;-91
2021/05/31 07:32:58;;;;;;;3.90;3.50;;;17.10;46.60;;;;;;5046511;28;20405;-90
2021/05/31 07:35:24;;;;;;;3.73;3.40;;;17.30;45.80;;;;;;5046662;28;20211;-92
2021/05/31 07:37:50;;;;;;;3.80;3.33;;;17.30;45.60;;;;;;5063843;28;20187;-92
2021/05/31 07:40:17;;;;;;;3.73;3.40;;;17.40;45.60;;;;;;5033738;28;20215;-91
2021/05/31 07:42:43;;;;;;;5.83;3.47;;;17.50;44.80;;;;;;5055538;28;20215;-91
2021/05/31 07:45:12;;;;;;;3.90;3.00;;;17.60;44.80;;;;;;5030046;28;20179;-91
2021/05/31 07:47:38;;;;;;;3.73;3.43;;;17.80;42.50;;;;;;5045337;28;20189;-91
2021/05/31 07:50:05;;;;;;;3.77;3.40;;;17.90;43.00;;;;;;5048196;28;20274;-91
2021/05/31 07:52:31;;;;;;;3.53;3.07;;;18.10;42.70;;;;;;5028722;28;20195;-91
2021/05/31 07:54:57;;;;;;;3.40;3.10;;;18.20;43.20;;;;;;5064450;28;20179;-92
2021/05/31 07:57:24;;;;;;;3.23;3.00;;;18.50;42.60;;;;;;5011349;28;20280;-91
2021/05/31 07:59:51;;;;;;;4.20;3.43;;;18.60;40.20;;;;;;5033606;28;20225;-91
2021/05/31 08:02:17;;;;;;;3.42;3.13;;;18.80;40.00;;;;;;5032504;28;20272;-90
2021/05/31 08:04:44;;;;;;;3.13;2.90;;;18.90;38.60;;;;;;5046253;28;20209;-90
2021/05/31 08:07:10;;;;;;;3.43;3.00;;;19.00;38.70;;;;;;5008559;28;20185;-90
2021/05/31 08:09:36;;;;;;;3.50;3.20;;;19.10;38.10;;;;;;5024425;28;20199;-91
2021/05/31 08:12:03;;;;;;;4.13;3.10;;;19.20;38.00;;;;;;5043999;28;20187;-90
2021/05/31 08:14:29;;;;;;;3.60;3.30;;;19.40;37.10;;;;;;5033402;28;20214;-93
2021/05/31 08:16:55;;;;;;;3.67;3.00;;;19.30;36.30;;;;;;5050124;28;20194;-93
2021/05/31 08:19:21;;;;;;;4.60;3.40;;;19.30;35.90;;;;;;5008266;28;20273;-91
2021/05/31 08:21:48;;;;;;;5.13;3.67;;;19.30;35.80;;;;;;5025636;28;20209;-91
2021/05/31 08:24:14;;;;;;;3.43;3.07;;;19.20;35.90;;;;;;5024857;28;20173;-91
2021/05/31 08:26:41;;;;;;;5.35;3.50;;;19.40;36.50;;;;;;5026312;28;20179;-92
2021/05/31 08:29:07;;;;;;;4.72;3.00;;;19.60;36.60;;;;;;5025372;28;20181;-91
2021/05/31 08:31:33;;;;;;;3.45;3.17;;;19.80;35.30;;;;;;5024408;28;20198;-93
2021/05/31 08:33:59;;;;;;;3.23;3.00;;;19.80;36.00;;;;;;5043975;28;20183;-91
2021/05/31 08:36:25;;;;;;;5.22;2.95;;;19.80;36.80;;;;;;5008949;28;20234;-90
2021/05/31 08:38:57;;;;;;;5.07;3.28;;;19.90;37.40;;;;;;5043427;28;20198;-90
2021/05/31 08:41:24;;;;;;;4.63;3.05;;;19.90;37.10;;;;;;5044837;28;20209;-90
2021/05/31 08:43:49;;;;;;;3.50;3.20;;;20.10;36.60;;;;;;5043749;28;20209;-91
2021/05/31 08:46:15;;;;;;;3.45;3.15;;;20.10;35.70;;;;;;5060570;28;20187;-90
2021/05/31 08:48:41;;;;;;;3.55;3.25;;;20.00;35.60;;;;;;5007508;28;20323;-90
2021/05/31 08:51:06;;;;;;;3.58;3.28;;;20.10;35.90;;;;;;5035383;28;20764;-90
2021/05/31 08:53:33;;;;;;;4.25;3.20;;;20.10;36.00;;;;;;5060588;28;20210;-88
2021/05/31 08:55:58;;;;;;;3.50;3.20;;;20.30;35.40;;;;;;5043617;28;20194;-90
2021/05/31 08:58:24;;;;;;;3.97;3.28;;;20.30;35.00;;;;;;5043541;28;20184;-91
2021/05/31 09:00:50;;;;;;;5.05;3.20;;;20.50;34.60;;;;;;5050837;28;20231;-88
2021/05/31 09:03:18;;;;;;;3.22;3.00;;;20.50;34.60;;;;;;5008091;28;20224;-88
2021/05/31 09:05:46;;;;;;;4.72;3.53;;;20.70;33.20;;;;;;5041198;28;20179;-88
2021/05/31 09:08:13;;;;;;;3.17;2.88;;;20.80;33.20;;;;;;5028691;28;20194;-89
2021/05/31 09:10:46;;;;;;;4.93;3.08;;;21.00;31.30;;;;;;5053106;28;20222;-88
2021/05/31 09:13:24;;;;;;;5.45;3.45;;;21.00;31.80;;;;;;5053451;28;20172;-89
2021/05/31 09:16:13;;;;;;;3.83;3.08;;;21.10;32.20;;;;;;5053514;28;20234;-90
2021/05/31 09:18:44;;;;;;;5.65;3.40;;;21.30;32.40;;;;;;5033483;28;20181;-88
2021/05/31 09:21:21;;;;;;;3.70;3.40;;;21.40;32.10;;;;;;5045769;28;20302;-88
2021/05/31 09:23:54;;;;;;;3.15;2.85;;;21.10;32.30;;;;;;5035871;28;20200;-89
2021/05/31 09:26:19;;;;;;;5.57;3.30;;;21.20;33.40;;;;;;5035816;28;20175;-90
2021/05/31 09:28:59;;;;;;;5.15;3.28;;;21.30;32.50;;;;;;5053502;28;20184;-89
2021/05/31 09:31:26;;;;;;;4.00;3.22;;;21.40;32.90;;;;;;5039534;28;20248;-89
2021/05/31 09:33:59;;;;;;;3.00;2.80;;;21.60;32.50;;;;;;5031690;28;20191;-90
2021/05/31 09:36:30;;;;;;;4.60;3.22;;;21.60;32.30;;;;;;5055543;28;20175;-89
2021/05/31 09:38:57;;;;;;;3.00;2.80;;;21.80;31.40;;;;;;5039908;28;20203;-86
2021/05/31 09:41:26;;;;;;;4.13;3.10;;;22.10;31.30;;;;;;5059986;28;20271;-91
2021/05/31 09:43:53;;;;;;;4.47;3.00;;;22.40;30.70;;;;;;5058801;28;20191;-91
2021/05/31 09:46:19;;;;;;;3.55;3.20;;;22.40;30.50;;;;;;5060141;28;20278;-88
2021/05/31 09:48:45;;;;;;;3.85;2.90;;;22.50;31.40;;;;;;5057598;28;20213;-90
2021/05/31 09:51:13;;;;;;;3.22;2.95;;;22.40;29.80;;;;;;5039404;28;20713;-90
2021/05/31 09:53:40;;;;;;;3.40;2.92;;;22.10;30.00;;;;;;5059744;28;20181;-89
2021/05/31 09:56:16;;;;;;;3.58;3.25;;;22.00;30.70;;;;;;5056679;28;20180;-90
2021/05/31 09:58:52;;;;;;;3.60;3.10;;;22.10;30.80;;;;;;5054889;28;20188;-90
2021/05/31 10:01:34;;;;;;;4.82;3.33;;;22.20;31.10;;;;;;5054746;28;20302;-92
2021/05/31 10:04:42;;;;;;;4.18;3.88;;;22.30;30.40;;;;;;5034433;28;20656;-89
2021/05/31 10:07:01;;;;;;;3.58;3.28;;;22.20;30.30;;;;;;5046549;28;20287;-90
2021/05/31 10:09:28;;;;;;;3.78;3.17;;;22.20;31.10;;;;;;5038730;28;20201;-90
2021/05/31 10:11:55;;;;;;;3.90;3.45;;;22.30;31.20;;;;;;5047792;28;20184;-88
2021/05/31 10:14:22;;;;;;;5.63;3.30;;;22.20;32.00;;;;;;5054155;28;20779;-90
2021/05/31 10:16:49;;;;;;;3.33;3.13;;;22.40;31.00;;;;;;5058135;28;20184;-88
2021/05/31 10:19:15;;;;;;;4.25;3.00;;;22.60;30.50;;;;;;5057114;28;20192;-89
2021/05/31 10:21:41;;;;;;;4.80;3.50;;;22.80;30.50;;;;;;5023213;28;20218;-88
2021/05/31 10:24:07;;;;;;;4.70;3.33;;;23.10;29.90;;;;;;5038713;28;20183;-87
2021/05/31 10:26:36;;;;;;;3.88;3.00;;;22.90;29.80;;;;;;5038480;28;20230;-88
2021/05/31 10:29:04;;;;;;;7.35;3.50;;;22.90;30.00;;;;;;5038635;28;20174;-88
2021/05/31 10:31:44;;;;;;;3.50;3.20;;;23.00;29.80;;;;;;5006682;28;20289;-87
2021/05/31 10:34:21;;;;;;;3.83;3.53;;;23.00;30.00;;;;;;5041415;28;20168;-84
2021/05/31 10:36:51;;;;;;;4.32;3.33;;;23.20;30.00;;;;;;5037034;28;20186;-90
2021/05/31 10:39:27;;;;;;;4.07;3.67;;;23.50;30.50;;;;;;5069027;28;21835;-90
2021/05/31 10:42:04;;;;;;;3.53;3.22;;;23.60;30.00;;;;;;5042567;28;20204;-91
2021/05/31 10:44:31;;;;;;;3.78;3.47;;;23.50;30.20;;;;;;5051644;28;20180;-86
2021/05/31 10:47:06;;;;;;;6.68;3.88;;;23.70;30.00;;;;;;5077404;28;20196;-85
2021/05/31 10:49:31;;;;;;;3.72;3.42;;;23.70;30.50;;;;;;5051395;28;20227;-86
2021/05/31 10:51:57;;;;;;;4.72;3.78;;;23.80;30.00;;;;;;5060570;28;20206;-86
2021/05/31 10:54:25;;;;;;;3.58;3.22;;;23.80;30.50;;;;;;5062814;28;20626;-86
2021/05/31 10:57:02;;;;;;;4.18;3.53;;;23.70;30.70;;;;;;5047402;28;20184;-88
2021/05/31 10:59:28;;;;;;;3.63;3.33;;;24.10;30.80;;;;;;5049925;28;20203;-86
2021/05/31 11:01:53;;;;;;;3.72;3.35;;;24.30;29.40;;;;;;5047555;28;20307;-86
2021/05/31 11:04:19;;;;;;;3.85;3.35;;;24.60;29.50;;;;;;5065171;28;20191;-85
2021/05/31 11:06:46;;;;;;;3.90;3.60;;;24.80;29.70;;;;;;5061776;28;20202;-87
2021/05/31 11:09:16;;;;;;;3.40;3.10;;;24.80;29.30;;;;;;5061616;28;20558;-88
2021/05/31 11:11:56;;;;;;;3.97;3.60;;;24.60;29.10;;;;;;5044613;28;20188;-88
2021/05/31 11:14:40;;;;;;;3.75;3.45;;;24.70;29.20;;;;;;5062969;28;20211;-88
2021/05/31 11:17:32;;;;;;;4.05;3.50;;;25.00;29.00;;;;;;5059187;28;20200;-87
2021/05/31 11:19:57;;;;;;;4.97;3.63;;;24.90;28.90;;;;;;5056152;28;20548;-87
2021/05/31 11:22:28;;;;;;;3.88;3.25;;;25.00;30.00;;;;;;5060731;28;20284;-89
2021/05/31 11:24:59;;;;;;;3.85;3.55;;;25.30;29.20;;;;;;5043629;28;20172;-88
2021/05/31 11:27:27;;;;;;;5.18;3.83;;;25.30;28.80;;;;;;5043297;28;20172;-88
2021/05/31 11:29:53;;;;;;;4.45;3.45;;;25.50;28.40;;;;;;5061705;28;20215;-90
2021/05/31 11:32:19;;;;;;;3.70;3.42;;;25.10;28.40;;;;;;5049406;28;20188;-91
2021/05/31 11:34:56;;;;;;;5.15;3.28;;;24.90;29.50;;;;;;5062360;28;20255;-90
2021/05/31 11:37:26;;;;;;;3.58;3.28;;;25.10;29.00;;;;;;5062006;28;20187;-90
2021/05/31 11:39:53;;;;;;;3.88;3.42;;;25.30;28.70;;;;;;5043806;28;20571;-90
2021/05/31 11:42:20;;;;;;;3.75;3.40;;;25.70;28.30;;;;;;5061319;28;20212;-90
2021/05/31 11:44:54;;;;;;;4.05;3.30;;;25.70;28.00;;;;;;5044704;28;20678;-91
2021/05/31 11:47:25;;;;;;;3.70;3.35;;;25.40;28.60;;;;;;5044354;28;20194;-91
2021/05/31 11:49:50;;;;;;;4.05;3.65;;;25.20;27.70;;;;;;5062397;28;20199;-91
2021/05/31 11:52:16;;;;;;;5.10;3.58;;;25.60;28.00;;;;;;5061169;28;20184;-91
2021/05/31 11:54:43;;;;;;;3.97;3.58;;;26.00;28.50;;;;;;5044621;28;20237;-91
2021/05/31 11:57:17;;;;;;;4.43;4.00;;;26.20;27.80;;;;;;5027293;28;20203;-90
2021/05/31 11:59:47;;;;;;;5.18;3.33;;;26.60;28.10;;;;;;5043848;28;20295;-90
2021/05/31 12:02:15;;;;;;;4.40;3.33;;;26.10;28.50;;;;;;5044184;28;20228;-90
2021/05/31 12:04:44;;;;;;;4.13;3.83;;;25.60;28.60;;;;;;5062003;28;20254;-89
2021/05/31 12:07:12;;;;;;;3.72;3.42;;;25.40;29.50;;;;;;5044188;28;20199;-90
2021/05/31 12:09:42;;;;;;;3.63;3.28;;;25.90;28.70;;;;;;5061840;28;20184;-91
2021/05/31 12:12:09;;;;;;;3.72;3.42;;;26.40;27.90;;;;;;5061700;28;20181;-90
2021/05/31 12:14:52;;;;;;;4.05;3.72;;;26.60;28.10;;;;;;5062883;28;20177;-90
2021/05/31 12:17:19;;;;;;;7.03;3.97;;;26.50;27.90;;;;;;5046783;28;20207;-89
2021/05/31 12:19:48;;;;;;;3.95;3.50;;;26.90;27.80;;;;;;5065853;28;20192;-90
2021/05/31 12:22:15;;;;;;;3.85;3.45;;;26.90;28.00;;;;;;5069806;28;20294;-90
2021/05/31 12:24:51;;;;;;;5.00;3.85;;;26.60;28.50;;;;;;5072112;28;20364;-91
2021/05/31 12:27:33;;;;;;;5.43;3.58;;;26.70;28.30;;;;;;5046677;28;20184;-90
2021/05/31 12:29:59;;;;;;;4.10;3.65;;;26.80;27.20;;;;;;5047805;28;20286;-91
2021/05/31 12:32:27;;;;;;;7.13;3.45;;;26.90;27.00;;;;;;5063748;28;20204;-89
2021/05/31 12:34:55;;;;;;;5.63;3.50;;;26.80;27.40;;;;;;5063500;28;20191;-90
2021/05/31 12:37:33;;;;;;;3.90;3.60;;;27.10;27.70;;;;;;5028593;28;20188;-90
2021/05/31 12:40:10;;;;;;;4.93;4.10;;;26.90;27.70;;;;;;5044511;28;20211;-90
2021/05/31 12:42:36;;;;;;;3.90;3.28;;;26.50;28.80;;;;;;5045129;28;20228;-90
2021/05/31 12:45:12;;;;;;;6.55;3.90;;;26.50;28.40;;;;;;5059473;28;20651;-88
2021/05/31 12:47:43;;;;;;;4.75;3.90;;;26.50;28.90;;;;;;5060820;28;20615;-87
2021/05/31 12:50:14;;;;;;;4.07;3.65;;;26.20;28.90;;;;;;5041533;28;20200;-88
2021/05/31 12:52:43;;;;;;;4.28;3.55;;;25.90;28.90;;;;;;5039776;28;20188;-88
2021/05/31 12:55:24;;;;;;;3.50;3.28;;;25.80;28.90;;;;;;5028310;28;20246;-88
2021/05/31 12:57:50;;;;;;;8.75;3.50;;;25.80;29.00;;;;;;5049881;28;20171;-88
2021/05/31 13:00:19;;;;;;;4.63;3.47;;;26.30;28.30;;;;;;5021833;28;20219;-88
2021/05/31 13:02:47;;;;;;;3.97;3.42;;;26.50;27.70;;;;;;5058130;28;20204;-88